createdAt,value
2019-01-04T05:14:41.107Z,2.40
2019-01-04T05:17:09.573Z,2.03
2019-01-04T05:19:36.708Z,2.17
2019-01-04T05:22:04.873Z,2.13
2019-01-04T05:24:32.014Z,1.57
2019-01-04T05:26:59.129Z,1.90
2019-01-04T18:33:04.592Z,25.63
2019-01-04T18:35:32.293Z,24.97
2019-01-04T18:37:59.959Z,18.73
2019-01-04T18:40:27.707Z,18.70
2019-01-04T18:42:55.994Z,19.50
2019-01-04T18:45:23.619Z,17.33
2019-01-04T18:47:51.392Z,14.67
2019-01-04T18:50:21.781Z,15.13
2019-01-04T18:52:49.613Z,11.43
2019-01-04T18:55:17.276Z,10.80
2019-01-04T18:57:45.261Z,9.17
2019-01-04T19:00:13.195Z,8.90
2019-01-04T19:02:41.771Z,10.60
2019-01-04T19:05:09.483Z,8.77
2019-01-04T19:07:37.077Z,8.93
2019-01-04T19:10:06.312Z,9.70
2019-01-04T19:12:33.766Z,7.07
2019-01-04T19:15:01.514Z,9.03
2019-01-04T19:17:29.228Z,10.43
2019-01-04T19:19:56.884Z,10.30
2019-01-04T19:22:24.995Z,9.13
2019-01-04T19:24:53.144Z,8.80
2019-01-04T19:27:20.948Z,9.13
2019-01-04T19:29:48.463Z,8.33
2019-01-04T19:32:16.840Z,8.10
2019-01-04T19:34:44.617Z,9.77
2019-01-04T19:37:12.249Z,7.83
2019-01-04T19:39:39.862Z,6.97
2019-01-04T19:42:07.742Z,8.60
2019-01-04T19:44:36.875Z,9.53
2019-01-04T19:47:04.743Z,9.60
2019-01-04T19:49:32.513Z,6.87
2019-01-04T19:52:00.550Z,6.57
2019-01-04T19:54:28.097Z,6.53
2019-01-04T19:56:55.901Z,5.60
2019-01-04T19:59:24.208Z,6.57
2019-01-04T20:01:51.757Z,7.10
2019-01-04T20:04:27.431Z,8.37
2019-01-04T20:07:54.047Z,7.63
2019-01-04T20:11:46.671Z,5.57
2019-01-04T20:15:29.882Z,6.43
2019-01-04T20:18:23.585Z,7.30
2019-01-04T20:21:09.868Z,7.20
2019-01-04T20:24:09.155Z,7.03
2019-01-04T20:27:14.245Z,8.90
2019-01-04T20:30:01.496Z,9.50
2019-01-04T20:33:01.005Z,8.80
2019-01-04T20:36:01.180Z,9.37
2019-01-04T20:38:46.979Z,7.40
2019-01-04T20:41:40.210Z,8.07
2019-01-04T20:44:39.747Z,7.20
2019-01-04T20:47:38.935Z,6.93
2019-01-04T20:50:28.849Z,6.80
2019-01-04T20:53:21.869Z,7.13
2019-01-04T20:56:07.835Z,5.63
2019-01-04T20:58:54.857Z,6.57
2019-01-04T21:01:50.926Z,6.83
2019-01-04T21:04:35.547Z,7.10
2019-01-04T21:07:22.525Z,6.40
2019-01-04T21:10:15.678Z,7.80
2019-01-04T21:13:01.743Z,8.80
2019-01-04T21:15:57.483Z,7.30
2019-01-04T21:18:48.568Z,8.70
2019-01-04T21:21:29.583Z,9.17
2019-01-04T21:24:15.610Z,9.67
2019-01-04T21:27:01.249Z,9.73
2019-01-04T21:29:46.892Z,10.90
2019-01-04T21:32:31.813Z,13.00
2019-01-04T21:35:17.782Z,13.97
2019-01-04T21:38:04.694Z,15.23
2019-01-04T21:41:00.170Z,15.80
2019-01-04T21:43:53.255Z,14.83
2019-01-04T21:46:55.179Z,14.90
2019-01-04T21:49:47.946Z,15.27
2019-01-04T21:52:40.808Z,13.80
2019-01-04T21:55:26.381Z,14.03
2019-01-04T21:58:16.061Z,14.03
2019-01-04T22:00:58.255Z,13.77
2019-01-04T22:03:44.083Z,14.93
2019-01-04T22:06:29.780Z,14.83
2019-01-04T22:09:25.833Z,14.37
2019-01-04T22:12:07.315Z,14.33
2019-01-04T22:14:52.603Z,14.70
2019-01-04T22:17:52.223Z,12.97
2019-01-04T22:20:37.788Z,13.57
2019-01-04T22:23:23.558Z,14.27
2019-01-04T22:26:16.287Z,15.40
2019-01-04T22:29:03.293Z,15.13
2019-01-04T22:32:00.580Z,14.67
2019-01-04T22:34:44.522Z,15.70
2019-01-04T22:37:31.659Z,14.63
2019-01-04T22:40:21.556Z,15.70
2019-01-04T22:43:11.553Z,15.17
2019-01-04T22:46:13.641Z,14.60
2019-01-04T22:49:12.656Z,13.80
2019-01-04T22:52:05.983Z,15.37
2019-01-04T22:54:52.980Z,15.67
2019-01-04T22:57:39.997Z,14.60
2019-01-04T23:00:43.716Z,14.07
2019-01-04T23:03:36.704Z,17.23
2019-01-04T23:06:22.384Z,15.43
2019-01-04T23:09:15.300Z,15.37
2019-01-04T23:12:00.784Z,14.80
2019-01-04T23:14:56.625Z,14.93
2019-01-04T23:17:47.182Z,14.43
2019-01-04T23:20:43.487Z,15.47
2019-01-04T23:23:22.535Z,14.47
2019-01-04T23:26:08.586Z,15.93
2019-01-04T23:28:58.276Z,16.30
2019-01-04T23:31:48.322Z,15.77
2019-01-04T23:34:44.091Z,15.53
2019-01-04T23:37:29.823Z,14.83
2019-01-04T23:40:15.471Z,14.83
2019-01-04T23:43:01.081Z,15.27
2019-01-04T23:46:01.649Z,15.57
2019-01-04T23:49:06.951Z,14.17
2019-01-04T23:51:46.852Z,15.37
2019-01-04T23:54:33.990Z,14.90
2019-01-04T23:57:33.386Z,15.03
